sensor_id;sensor_type;location;lat;lon;timestamp;P1;durP1;ratioP1;P2;durP2;ratioP2
65583;SDS011;62116;43.582;1.470;2023-04-19T00:02:21;4.32;;;2.90;;
65583;SDS011;62116;43.582;1.470;2023-04-19T00:04:47;6.15;;;3.03;;
65583;SDS011;62116;43.582;1.470;2023-04-19T00:07:13;8.15;;;3.35;;
65583;SDS011;62116;43.582;1.470;2023-04-19T00:09:38;5.30;;;3.20;;
65583;SDS011;62116;43.582;1.470;2023-04-19T00:12:04;4.43;;;2.72;;
65583;SDS011;62116;43.582;1.470;2023-04-19T00:14:29;4.00;;;2.92;;
65583;SDS011;62116;43.582;1.470;2023-04-19T00:16:55;4.05;;;2.55;;
65583;SDS011;62116;43.582;1.470;2023-04-19T00:19:20;4.40;;;3.03;;
65583;SDS011;62116;43.582;1.470;2023-04-19T00:21:47;4.22;;;2.90;;
65583;SDS011;62116;43.582;1.470;2023-04-19T00:24:12;4.55;;;2.70;;
65583;SDS011;62116;43.582;1.470;2023-04-19T00:26:38;4.65;;;2.90;;
65583;SDS011;62116;43.582;1.470;2023-04-19T00:29:03;3.85;;;2.85;;
65583;SDS011;62116;43.582;1.470;2023-04-19T00:31:28;4.78;;;3.35;;
65583;SDS011;62116;43.582;1.470;2023-04-19T00:33:54;5.75;;;2.80;;
65583;SDS011;62116;43.582;1.470;2023-04-19T00:36:20;4.15;;;2.90;;
65583;SDS011;62116;43.582;1.470;2023-04-19T00:38:46;4.93;;;2.90;;
65583;SDS011;62116;43.582;1.470;2023-04-19T00:41:11;5.72;;;3.20;;
65583;SDS011;62116;43.582;1.470;2023-04-19T00:43:36;4.43;;;2.90;;
65583;SDS011;62116;43.582;1.470;2023-04-19T00:46:02;4.63;;;3.20;;
65583;SDS011;62116;43.582;1.470;2023-04-19T00:48:27;6.30;;;3.10;;
65583;SDS011;62116;43.582;1.470;2023-04-19T00:50:54;4.65;;;3.17;;
65583;SDS011;62116;43.582;1.470;2023-04-19T00:53:20;6.43;;;3.33;;
65583;SDS011;62116;43.582;1.470;2023-04-19T00:55:46;7.03;;;3.35;;
65583;SDS011;62116;43.582;1.470;2023-04-19T00:58:12;4.82;;;3.08;;
65583;SDS011;62116;43.582;1.470;2023-04-19T01:00:37;5.47;;;2.83;;
65583;SDS011;62116;43.582;1.470;2023-04-19T01:03:03;5.13;;;3.28;;
65583;SDS011;62116;43.582;1.470;2023-04-19T01:05:28;5.30;;;2.80;;
65583;SDS011;62116;43.582;1.470;2023-04-19T01:07:55;7.40;;;3.35;;
65583;SDS011;62116;43.582;1.470;2023-04-19T01:10:20;4.32;;;3.10;;
65583;SDS011;62116;43.582;1.470;2023-04-19T01:12:45;4.30;;;3.03;;
65583;SDS011;62116;43.582;1.470;2023-04-19T01:15:11;4.25;;;2.97;;
65583;SDS011;62116;43.582;1.470;2023-04-19T01:17:36;5.53;;;2.80;;
65583;SDS011;62116;43.582;1.470;2023-04-19T01:20:03;6.35;;;3.20;;
65583;SDS011;62116;43.582;1.470;2023-04-19T01:22:33;4.90;;;3.00;;
65583;SDS011;62116;43.582;1.470;2023-04-19T01:25:04;6.43;;;3.40;;
65583;SDS011;62116;43.582;1.470;2023-04-19T01:27:31;5.30;;;3.40;;
65583;SDS011;62116;43.582;1.470;2023-04-19T01:29:56;4.65;;;3.20;;
65583;SDS011;62116;43.582;1.470;2023-04-19T01:32:22;4.88;;;3.10;;
65583;SDS011;62116;43.582;1.470;2023-04-19T01:34:49;6.63;;;3.13;;
65583;SDS011;62116;43.582;1.470;2023-04-19T01:37:16;5.93;;;3.00;;
65583;SDS011;62116;43.582;1.470;2023-04-19T01:39:41;5.03;;;3.45;;
65583;SDS011;62116;43.582;1.470;2023-04-19T01:42:07;7.70;;;3.13;;
65583;SDS011;62116;43.582;1.470;2023-04-19T01:44:32;6.38;;;2.88;;
65583;SDS011;62116;43.582;1.470;2023-04-19T01:46:57;6.72;;;3.08;;
65583;SDS011;62116;43.582;1.470;2023-04-19T01:49:23;6.38;;;3.15;;
65583;SDS011;62116;43.582;1.470;2023-04-19T01:51:48;5.22;;;3.17;;
65583;SDS011;62116;43.582;1.470;2023-04-19T01:54:14;6.03;;;2.88;;
65583;SDS011;62116;43.582;1.470;2023-04-19T01:56:39;4.60;;;3.03;;
65583;SDS011;62116;43.582;1.470;2023-04-19T01:59:05;4.20;;;2.97;;
65583;SDS011;62116;43.582;1.470;2023-04-19T02:01:30;4.40;;;2.90;;
65583;SDS011;62116;43.582;1.470;2023-04-19T02:03:56;5.10;;;2.80;;
65583;SDS011;62116;43.582;1.470;2023-04-19T02:06:21;4.25;;;2.70;;
65583;SDS011;62116;43.582;1.470;2023-04-19T02:08:46;4.57;;;3.08;;
65583;SDS011;62116;43.582;1.470;2023-04-19T02:11:12;3.75;;;2.65;;
65583;SDS011;62116;43.582;1.470;2023-04-19T02:13:41;4.63;;;2.95;;
65583;SDS011;62116;43.582;1.470;2023-04-19T02:16:07;6.90;;;2.88;;
65583;SDS011;62116;43.582;1.470;2023-04-19T02:18:32;5.35;;;2.92;;
65583;SDS011;62116;43.582;1.470;2023-04-19T02:21:02;4.47;;;2.92;;
65583;SDS011;62116;43.582;1.470;2023-04-19T02:23:28;3.83;;;2.85;;
65583;SDS011;62116;43.582;1.470;2023-04-19T02:25:54;5.90;;;2.75;;
65583;SDS011;62116;43.582;1.470;2023-04-19T02:28:19;5.22;;;2.80;;
65583;SDS011;62116;43.582;1.470;2023-04-19T02:30:45;4.70;;;2.90;;
65583;SDS011;62116;43.582;1.470;2023-04-19T02:33:10;4.28;;;2.90;;
65583;SDS011;62116;43.582;1.470;2023-04-19T02:35:36;4.82;;;2.70;;
65583;SDS011;62116;43.582;1.470;2023-04-19T02:38:02;5.18;;;3.05;;
65583;SDS011;62116;43.582;1.470;2023-04-19T02:40:28;4.65;;;2.90;;
65583;SDS011;62116;43.582;1.470;2023-04-19T02:42:54;5.57;;;2.92;;
65583;SDS011;62116;43.582;1.470;2023-04-19T02:45:20;4.25;;;2.80;;
65583;SDS011;62116;43.582;1.470;2023-04-19T02:47:45;4.18;;;2.53;;
65583;SDS011;62116;43.582;1.470;2023-04-19T02:50:11;4.28;;;2.75;;
65583;SDS011;62116;43.582;1.470;2023-04-19T02:52:37;3.88;;;2.70;;
65583;SDS011;62116;43.582;1.470;2023-04-19T02:55:03;4.35;;;2.80;;
65583;SDS011;62116;43.582;1.470;2023-04-19T02:57:29;4.53;;;2.90;;
65583;SDS011;62116;43.582;1.470;2023-04-19T02:59:55;4.13;;;2.83;;
65583;SDS011;62116;43.582;1.470;2023-04-19T03:02:20;4.10;;;2.80;;
65583;SDS011;62116;43.582;1.470;2023-04-19T03:04:46;4.28;;;2.60;;
65583;SDS011;62116;43.582;1.470;2023-04-19T03:07:12;4.40;;;2.80;;
65583;SDS011;62116;43.582;1.470;2023-04-19T03:09:38;3.65;;;2.50;;
65583;SDS011;62116;43.582;1.470;2023-04-19T03:12:03;3.60;;;2.53;;
65583;SDS011;62116;43.582;1.470;2023-04-19T03:14:29;4.47;;;2.85;;
65583;SDS011;62116;43.582;1.470;2023-04-19T03:16:55;5.03;;;2.50;;
65583;SDS011;62116;43.582;1.470;2023-04-19T03:19:20;3.60;;;2.70;;
65583;SDS011;62116;43.582;1.470;2023-04-19T03:21:45;5.30;;;2.85;;
65583;SDS011;62116;43.582;1.470;2023-04-19T03:24:12;4.03;;;2.45;;
65583;SDS011;62116;43.582;1.470;2023-04-19T03:26:37;3.97;;;2.63;;
65583;SDS011;62116;43.582;1.470;2023-04-19T03:29:03;5.70;;;2.80;;
65583;SDS011;62116;43.582;1.470;2023-04-19T03:31:28;4.20;;;2.70;;
65583;SDS011;62116;43.582;1.470;2023-04-19T03:33:54;6.53;;;2.63;;
65583;SDS011;62116;43.582;1.470;2023-04-19T03:36:20;4.53;;;2.80;;
65583;SDS011;62116;43.582;1.470;2023-04-19T03:38:45;4.25;;;2.70;;
65583;SDS011;62116;43.582;1.470;2023-04-19T03:41:21;3.83;;;2.70;;
65583;SDS011;62116;43.582;1.470;2023-04-19T03:43:48;3.67;;;2.40;;
65583;SDS011;62116;43.582;1.470;2023-04-19T03:46:13;4.18;;;2.60;;
65583;SDS011;62116;43.582;1.470;2023-04-19T03:48:38;4.30;;;2.72;;
65583;SDS011;62116;43.582;1.470;2023-04-19T03:51:04;4.25;;;2.55;;
65583;SDS011;62116;43.582;1.470;2023-04-19T03:53:29;4.03;;;2.90;;
65583;SDS011;62116;43.582;1.470;2023-04-19T03:55:55;5.40;;;3.10;;
65583;SDS011;62116;43.582;1.470;2023-04-19T03:58:20;5.20;;;3.22;;
65583;SDS011;62116;43.582;1.470;2023-04-19T04:00:46;4.07;;;2.88;;
65583;SDS011;62116;43.582;1.470;2023-04-19T04:03:11;4.80;;;3.08;;
65583;SDS011;62116;43.582;1.470;2023-04-19T04:05:37;6.47;;;3.05;;
65583;SDS011;62116;43.582;1.470;2023-04-19T04:08:02;5.55;;;3.15;;
65583;SDS011;62116;43.582;1.470;2023-04-19T04:10:27;6.22;;;2.80;;
65583;SDS011;62116;43.582;1.470;2023-04-19T04:12:53;4.45;;;3.08;;
65583;SDS011;62116;43.582;1.470;2023-04-19T04:15:19;4.35;;;3.00;;
65583;SDS011;62116;43.582;1.470;2023-04-19T04:17:44;5.07;;;3.00;;
65583;SDS011;62116;43.582;1.470;2023-04-19T04:20:10;5.38;;;3.40;;
65583;SDS011;62116;43.582;1.470;2023-04-19T04:22:44;4.57;;;3.00;;
65583;SDS011;62116;43.582;1.470;2023-04-19T04:25:12;5.20;;;3.00;;
65583;SDS011;62116;43.582;1.470;2023-04-19T04:27:39;6.30;;;2.88;;
65583;SDS011;62116;43.582;1.470;2023-04-19T04:30:06;4.97;;;2.95;;
65583;SDS011;62116;43.582;1.470;2023-04-19T04:32:33;5.47;;;2.90;;
65583;SDS011;62116;43.582;1.470;2023-04-19T04:35:02;4.82;;;2.92;;
65583;SDS011;62116;43.582;1.470;2023-04-19T04:37:29;4.28;;;2.90;;
65583;SDS011;62116;43.582;1.470;2023-04-19T04:39:58;4.47;;;3.03;;
65583;SDS011;62116;43.582;1.470;2023-04-19T04:42:23;4.20;;;3.00;;
65583;SDS011;62116;43.582;1.470;2023-04-19T04:44:49;5.38;;;3.03;;
65583;SDS011;62116;43.582;1.470;2023-04-19T04:47:15;5.45;;;3.42;;
65583;SDS011;62116;43.582;1.470;2023-04-19T04:49:41;4.50;;;3.20;;
65583;SDS011;62116;43.582;1.470;2023-04-19T04:52:06;5.20;;;3.45;;
65583;SDS011;62116;43.582;1.470;2023-04-19T04:54:32;5.07;;;3.33;;
65583;SDS011;62116;43.582;1.470;2023-04-19T04:56:58;4.90;;;3.50;;
65583;SDS011;62116;43.582;1.470;2023-04-19T04:59:23;5.40;;;3.38;;
65583;SDS011;62116;43.582;1.470;2023-04-19T05:01:49;5.25;;;3.45;;
65583;SDS011;62116;43.582;1.470;2023-04-19T05:04:15;6.35;;;3.40;;
65583;SDS011;62116;43.582;1.470;2023-04-19T05:06:40;5.65;;;3.58;;
65583;SDS011;62116;43.582;1.470;2023-04-19T05:09:06;5.30;;;3.53;;
65583;SDS011;62116;43.582;1.470;2023-04-19T05:11:32;6.55;;;3.53;;
65583;SDS011;62116;43.582;1.470;2023-04-19T05:13:57;5.68;;;3.78;;
65583;SDS011;62116;43.582;1.470;2023-04-19T05:16:24;6.78;;;3.90;;
65583;SDS011;62116;43.582;1.470;2023-04-19T05:18:50;7.40;;;3.85;;
65583;SDS011;62116;43.582;1.470;2023-04-19T05:21:15;6.47;;;4.22;;
65583;SDS011;62116;43.582;1.470;2023-04-19T05:23:41;5.70;;;3.55;;
65583;SDS011;62116;43.582;1.470;2023-04-19T05:26:06;5.28;;;3.45;;
65583;SDS011;62116;43.582;1.470;2023-04-19T05:28:31;8.15;;;4.03;;
65583;SDS011;62116;43.582;1.470;2023-04-19T05:30:57;5.85;;;3.90;;
65583;SDS011;62116;43.582;1.470;2023-04-19T05:33:22;6.30;;;4.30;;
65583;SDS011;62116;43.582;1.470;2023-04-19T05:35:48;6.35;;;4.00;;
65583;SDS011;62116;43.582;1.470;2023-04-19T05:38:13;5.72;;;3.90;;
65583;SDS011;62116;43.582;1.470;2023-04-19T05:40:38;5.55;;;4.32;;
65583;SDS011;62116;43.582;1.470;2023-04-19T05:43:04;7.63;;;4.25;;
65583;SDS011;62116;43.582;1.470;2023-04-19T05:45:30;7.30;;;4.30;;
65583;SDS011;62116;43.582;1.470;2023-04-19T05:47:55;7.97;;;4.45;;
65583;SDS011;62116;43.582;1.470;2023-04-19T05:50:20;6.28;;;4.10;;
65583;SDS011;62116;43.582;1.470;2023-04-19T05:52:46;6.88;;;4.13;;
65583;SDS011;62116;43.582;1.470;2023-04-19T05:55:11;5.55;;;4.07;;
65583;SDS011;62116;43.582;1.470;2023-04-19T05:57:37;6.13;;;4.07;;
65583;SDS011;62116;43.582;1.470;2023-04-19T06:00:03;10.68;;;3.95;;
65583;SDS011;62116;43.582;1.470;2023-04-19T06:02:29;7.07;;;3.85;;
65583;SDS011;62116;43.582;1.470;2023-04-19T06:04:54;5.22;;;3.60;;
65583;SDS011;62116;43.582;1.470;2023-04-19T06:07:22;6.63;;;3.53;;
65583;SDS011;62116;43.582;1.470;2023-04-19T06:09:47;7.90;;;3.80;;
65583;SDS011;62116;43.582;1.470;2023-04-19T06:12:13;5.65;;;3.60;;
65583;SDS011;62116;43.582;1.470;2023-04-19T06:14:38;7.00;;;3.65;;
65583;SDS011;62116;43.582;1.470;2023-04-19T06:17:03;7.85;;;3.85;;
65583;SDS011;62116;43.582;1.470;2023-04-19T06:19:29;7.13;;;3.90;;
65583;SDS011;62116;43.582;1.470;2023-04-19T06:21:57;6.95;;;3.65;;
65583;SDS011;62116;43.582;1.470;2023-04-19T06:24:24;6.50;;;3.97;;
65583;SDS011;62116;43.582;1.470;2023-04-19T06:26:49;7.47;;;3.50;;
65583;SDS011;62116;43.582;1.470;2023-04-19T06:29:15;6.32;;;3.55;;
65583;SDS011;62116;43.582;1.470;2023-04-19T06:31:41;7.53;;;3.85;;
65583;SDS011;62116;43.582;1.470;2023-04-19T06:34:06;7.05;;;3.50;;
65583;SDS011;62116;43.582;1.470;2023-04-19T06:36:32;4.95;;;3.45;;
65583;SDS011;62116;43.582;1.470;2023-04-19T06:38:57;6.60;;;3.53;;
65583;SDS011;62116;43.582;1.470;2023-04-19T06:41:23;5.95;;;3.60;;
65583;SDS011;62116;43.582;1.470;2023-04-19T06:43:48;6.07;;;3.78;;
65583;SDS011;62116;43.582;1.470;2023-04-19T06:46:14;5.70;;;3.72;;
65583;SDS011;62116;43.582;1.470;2023-04-19T06:48:39;4.70;;;3.28;;
65583;SDS011;62116;43.582;1.470;2023-04-19T06:51:05;5.63;;;3.30;;
65583;SDS011;62116;43.582;1.470;2023-04-19T06:53:30;5.03;;;3.10;;
65583;SDS011;62116;43.582;1.470;2023-04-19T06:56:00;5.40;;;3.58;;
65583;SDS011;62116;43.582;1.470;2023-04-19T06:58:26;4.95;;;3.42;;
65583;SDS011;62116;43.582;1.470;2023-04-19T07:00:52;4.70;;;3.40;;
65583;SDS011;62116;43.582;1.470;2023-04-19T07:03:17;5.65;;;3.38;;
65583;SDS011;62116;43.582;1.470;2023-04-19T07:05:43;4.95;;;3.50;;
65583;SDS011;62116;43.582;1.470;2023-04-19T07:08:09;4.53;;;3.42;;
65583;SDS011;62116;43.582;1.470;2023-04-19T07:10:34;8.82;;;3.33;;
65583;SDS011;62116;43.582;1.470;2023-04-19T07:13:00;6.22;;;3.42;;
65583;SDS011;62116;43.582;1.470;2023-04-19T07:15:25;14.02;;;4.45;;
65583;SDS011;62116;43.582;1.470;2023-04-19T07:17:50;17.63;;;4.25;;
65583;SDS011;62116;43.582;1.470;2023-04-19T07:20:16;10.50;;;3.90;;
65583;SDS011;62116;43.582;1.470;2023-04-19T07:22:41;14.82;;;4.25;;
65583;SDS011;62116;43.582;1.470;2023-04-19T07:25:07;20.85;;;4.38;;
65583;SDS011;62116;43.582;1.470;2023-04-19T07:27:33;10.73;;;3.20;;
65583;SDS011;62116;43.582;1.470;2023-04-19T07:29:58;8.15;;;3.70;;
65583;SDS011;62116;43.582;1.470;2023-04-19T07:32:23;5.53;;;3.13;;
65583;SDS011;62116;43.582;1.470;2023-04-19T07:34:49;7.85;;;3.28;;
65583;SDS011;62116;43.582;1.470;2023-04-19T07:37:15;5.28;;;3.30;;
65583;SDS011;62116;43.582;1.470;2023-04-19T07:39:41;5.80;;;3.17;;
65583;SDS011;62116;43.582;1.470;2023-04-19T07:42:06;5.25;;;3.13;;
65583;SDS011;62116;43.582;1.470;2023-04-19T07:44:32;7.68;;;3.33;;
65583;SDS011;62116;43.582;1.470;2023-04-19T07:46:57;5.97;;;3.20;;
65583;SDS011;62116;43.582;1.470;2023-04-19T07:49:23;8.05;;;3.08;;
65583;SDS011;62116;43.582;1.470;2023-04-19T07:51:48;5.47;;;2.80;;
65583;SDS011;62116;43.582;1.470;2023-04-19T07:54:13;6.22;;;2.90;;
65583;SDS011;62116;43.582;1.470;2023-04-19T07:56:44;5.15;;;2.70;;
65583;SDS011;62116;43.582;1.470;2023-04-19T07:59:09;6.30;;;2.85;;
65583;SDS011;62116;43.582;1.470;2023-04-19T08:01:35;6.00;;;3.25;;
65583;SDS011;62116;43.582;1.470;2023-04-19T08:04:00;5.65;;;3.20;;
65583;SDS011;62116;43.582;1.470;2023-04-19T08:06:26;3.90;;;2.53;;
65583;SDS011;62116;43.582;1.470;2023-04-19T08:08:51;5.63;;;2.88;;
65583;SDS011;62116;43.582;1.470;2023-04-19T08:11:17;5.35;;;2.97;;
65583;SDS011;62116;43.582;1.470;2023-04-19T08:13:42;5.03;;;2.90;;
65583;SDS011;62116;43.582;1.470;2023-04-19T08:16:08;5.10;;;3.20;;
65583;SDS011;62116;43.582;1.470;2023-04-19T08:18:33;9.65;;;3.28;;
65583;SDS011;62116;43.582;1.470;2023-04-19T08:20:59;6.07;;;3.33;;
65583;SDS011;62116;43.582;1.470;2023-04-19T08:23:25;7.53;;;3.13;;
65583;SDS011;62116;43.582;1.470;2023-04-19T08:25:50;5.57;;;3.00;;
65583;SDS011;62116;43.582;1.470;2023-04-19T08:28:16;4.90;;;2.80;;
65583;SDS011;62116;43.582;1.470;2023-04-19T08:30:42;8.68;;;3.30;;
65583;SDS011;62116;43.582;1.470;2023-04-19T08:33:08;5.43;;;2.83;;
65583;SDS011;62116;43.582;1.470;2023-04-19T08:35:33;7.05;;;2.90;;
65583;SDS011;62116;43.582;1.470;2023-04-19T08:38:00;6.07;;;3.00;;
65583;SDS011;62116;43.582;1.470;2023-04-19T08:40:26;5.93;;;3.00;;
65583;SDS011;62116;43.582;1.470;2023-04-19T08:42:55;3.75;;;2.42;;
65583;SDS011;62116;43.582;1.470;2023-04-19T08:45:20;5.07;;;2.70;;
65583;SDS011;62116;43.582;1.470;2023-04-19T08:47:52;5.40;;;2.63;;
65583;SDS011;62116;43.582;1.470;2023-04-19T08:50:19;5.15;;;2.50;;
65583;SDS011;62116;43.582;1.470;2023-04-19T08:52:45;5.10;;;2.63;;
65583;SDS011;62116;43.582;1.470;2023-04-19T08:55:11;6.43;;;2.70;;
65583;SDS011;62116;43.582;1.470;2023-04-19T08:57:37;5.57;;;2.40;;
65583;SDS011;62116;43.582;1.470;2023-04-19T09:00:03;6.15;;;2.70;;
65583;SDS011;62116;43.582;1.470;2023-04-19T09:02:51;6.40;;;2.65;;
65583;SDS011;62116;43.582;1.470;2023-04-19T09:05:17;4.47;;;2.35;;
65583;SDS011;62116;43.582;1.470;2023-04-19T09:07:43;7.97;;;2.70;;
65583;SDS011;62116;43.582;1.470;2023-04-19T09:10:13;5.47;;;2.30;;
65583;SDS011;62116;43.582;1.470;2023-04-19T09:12:43;4.68;;;2.22;;
65583;SDS011;62116;43.582;1.470;2023-04-19T09:15:34;6.90;;;2.75;;
65583;SDS011;62116;43.582;1.470;2023-04-19T09:18:04;6.65;;;2.60;;
65583;SDS011;62116;43.582;1.470;2023-04-19T09:20:35;4.72;;;2.45;;
65583;SDS011;62116;43.582;1.470;2023-04-19T09:23:06;6.10;;;2.15;;
65583;SDS011;62116;43.582;1.470;2023-04-19T09:25:33;6.95;;;2.47;;
65583;SDS011;62116;43.582;1.470;2023-04-19T09:28:12;4.68;;;2.60;;
65583;SDS011;62116;43.582;1.470;2023-04-19T09:30:39;7.95;;;2.83;;
65583;SDS011;62116;43.582;1.470;2023-04-19T09:33:04;4.95;;;2.40;;
65583;SDS011;62116;43.582;1.470;2023-04-19T09:35:40;6.20;;;2.60;;
65583;SDS011;62116;43.582;1.470;2023-04-19T09:38:10;5.20;;;2.33;;
65583;SDS011;62116;43.582;1.470;2023-04-19T09:40:36;4.07;;;2.42;;
65583;SDS011;62116;43.582;1.470;2023-04-19T09:43:02;4.63;;;2.45;;
65583;SDS011;62116;43.582;1.470;2023-04-19T09:45:49;5.88;;;2.50;;
65583;SDS011;62116;43.582;1.470;2023-04-19T09:48:13;5.55;;;2.20;;
65583;SDS011;62116;43.582;1.470;2023-04-19T09:51:12;5.50;;;2.40;;
65583;SDS011;62116;43.582;1.470;2023-04-19T09:53:30;5.38;;;2.05;;
65583;SDS011;62116;43.582;1.470;2023-04-19T09:56:00;4.73;;;2.27;;
65583;SDS011;62116;43.582;1.470;2023-04-19T09:58:26;7.47;;;2.30;;
65583;SDS011;62116;43.582;1.470;2023-04-19T10:00:52;4.57;;;2.30;;
65583;SDS011;62116;43.582;1.470;2023-04-19T10:03:18;7.95;;;2.35;;
65583;SDS011;62116;43.582;1.470;2023-04-19T10:05:45;5.07;;;2.25;;
65583;SDS011;62116;43.582;1.470;2023-04-19T10:08:12;5.18;;;2.17;;
65583;SDS011;62116;43.582;1.470;2023-04-19T10:10:39;6.57;;;2.13;;
65583;SDS011;62116;43.582;1.470;2023-04-19T10:13:06;5.20;;;2.33;;
65583;SDS011;62116;43.582;1.470;2023-04-19T10:15:36;5.10;;;1.98;;
65583;SDS011;62116;43.582;1.470;2023-04-19T10:18:02;4.70;;;2.20;;
65583;SDS011;62116;43.582;1.470;2023-04-19T10:22:54;7.57;;;2.10;;
65583;SDS011;62116;43.582;1.470;2023-04-19T10:25:19;4.50;;;1.98;;
65583;SDS011;62116;43.582;1.470;2023-04-19T10:27:53;7.38;;;2.17;;
65583;SDS011;62116;43.582;1.470;2023-04-19T10:30:20;4.30;;;2.10;;
65583;SDS011;62116;43.582;1.470;2023-04-19T10:32:56;5.13;;;2.35;;
65583;SDS011;62116;43.582;1.470;2023-04-19T10:35:27;4.72;;;2.00;;
65583;SDS011;62116;43.582;1.470;2023-04-19T10:38:11;7.15;;;2.03;;
65583;SDS011;62116;43.582;1.470;2023-04-19T10:40:53;5.80;;;1.80;;
65583;SDS011;62116;43.582;1.470;2023-04-19T10:43:20;4.57;;;1.70;;
65583;SDS011;62116;43.582;1.470;2023-04-19T10:45:50;3.78;;;1.80;;
65583;SDS011;62116;43.582;1.470;2023-04-19T11:04:11;3.03;;;1.75;;
65583;SDS011;62116;43.582;1.470;2023-04-19T11:06:59;3.28;;;1.73;;
65583;SDS011;62116;43.582;1.470;2023-04-19T11:12:11;4.75;;;1.80;;
65583;SDS011;62116;43.582;1.470;2023-04-19T11:14:41;2.88;;;1.45;;
65583;SDS011;62116;43.582;1.470;2023-04-19T11:17:30;2.28;;;1.48;;
65583;SDS011;62116;43.582;1.470;2023-04-19T11:22:32;3.07;;;1.40;;
65583;SDS011;62116;43.582;1.470;2023-04-19T11:27:37;4.30;;;1.60;;
65583;SDS011;62116;43.582;1.470;2023-04-19T11:30:07;3.38;;;1.52;;
65583;SDS011;62116;43.582;1.470;2023-04-19T11:32:35;4.10;;;1.50;;
65583;SDS011;62116;43.582;1.470;2023-04-19T11:35:04;3.17;;;1.60;;
65583;SDS011;62116;43.582;1.470;2023-04-19T11:37:32;3.03;;;1.60;;
65583;SDS011;62116;43.582;1.470;2023-04-19T11:39:58;2.75;;;1.48;;
65583;SDS011;62116;43.582;1.470;2023-04-19T11:42:24;4.82;;;1.58;;
65583;SDS011;62116;43.582;1.470;2023-04-19T11:44:50;3.78;;;1.25;;
65583;SDS011;62116;43.582;1.470;2023-04-19T11:47:16;7.32;;;1.70;;
65583;SDS011;62116;43.582;1.470;2023-04-19T11:49:43;3.38;;;1.40;;
65583;SDS011;62116;43.582;1.470;2023-04-19T11:52:08;4.68;;;1.23;;
65583;SDS011;62116;43.582;1.470;2023-04-19T11:54:34;4.78;;;1.25;;
65583;SDS011;62116;43.582;1.470;2023-04-19T11:59:27;2.60;;;1.27;;
65583;SDS011;62116;43.582;1.470;2023-04-19T12:01:53;4.63;;;1.30;;
65583;SDS011;62116;43.582;1.470;2023-04-19T12:04:18;4.80;;;1.17;;
65583;SDS011;62116;43.582;1.470;2023-04-19T12:06:44;1.92;;;0.90;;
65583;SDS011;62116;43.582;1.470;2023-04-19T12:09:19;5.57;;;1.50;;
65583;SDS011;62116;43.582;1.470;2023-04-19T12:11:46;3.33;;;1.30;;
65583;SDS011;62116;43.582;1.470;2023-04-19T12:14:15;3.03;;;1.40;;
65583;SDS011;62116;43.582;1.470;2023-04-19T12:16:43;5.22;;;1.17;;
65583;SDS011;62116;43.582;1.470;2023-04-19T12:19:16;4.60;;;1.20;;
65583;SDS011;62116;43.582;1.470;2023-04-19T12:21:44;3.58;;;1.13;;
65583;SDS011;62116;43.582;1.470;2023-04-19T12:24:10;4.00;;;1.30;;
65583;SDS011;62116;43.582;1.470;2023-04-19T12:26:51;2.65;;;1.23;;
65583;SDS011;62116;43.582;1.470;2023-04-19T12:29:25;3.00;;;1.38;;
65583;SDS011;62116;43.582;1.470;2023-04-19T12:31:50;4.53;;;1.35;;
65583;SDS011;62116;43.582;1.470;2023-04-19T12:34:16;4.80;;;1.60;;
65583;SDS011;62116;43.582;1.470;2023-04-19T12:36:41;5.25;;;1.75;;
65583;SDS011;62116;43.582;1.470;2023-04-19T12:39:07;5.50;;;1.75;;
65583;SDS011;62116;43.582;1.470;2023-04-19T12:41:33;3.80;;;1.50;;
65583;SDS011;62116;43.582;1.470;2023-04-19T12:43:58;3.75;;;1.40;;
65583;SDS011;62116;43.582;1.470;2023-04-19T12:46:23;5.28;;;1.65;;
65583;SDS011;62116;43.582;1.470;2023-04-19T12:48:49;3.67;;;1.40;;
65583;SDS011;62116;43.582;1.470;2023-04-19T12:51:14;1.98;;;1.10;;
65583;SDS011;62116;43.582;1.470;2023-04-19T12:53:40;4.65;;;1.67;;
65583;SDS011;62116;43.582;1.470;2023-04-19T12:56:06;1.88;;;1.17;;
65583;SDS011;62116;43.582;1.470;2023-04-19T12:58:31;2.67;;;1.08;;
65583;SDS011;62116;43.582;1.470;2023-04-19T13:00:57;4.30;;;1.27;;
65583;SDS011;62116;43.582;1.470;2023-04-19T13:03:22;4.13;;;1.23;;
65583;SDS011;62116;43.582;1.470;2023-04-19T13:05:47;1.95;;;1.10;;
65583;SDS011;62116;43.582;1.470;2023-04-19T13:08:13;2.53;;;1.20;;
65583;SDS011;62116;43.582;1.470;2023-04-19T13:10:38;5.38;;;1.27;;
65583;SDS011;62116;43.582;1.470;2023-04-19T13:13:03;4.57;;;1.55;;
65583;SDS011;62116;43.582;1.470;2023-04-19T13:15:29;3.05;;;1.40;;
65583;SDS011;62116;43.582;1.470;2023-04-19T13:17:55;1.90;;;1.13;;
65583;SDS011;62116;43.582;1.470;2023-04-19T13:20:20;2.45;;;1.27;;
65583;SDS011;62116;43.582;1.470;2023-04-19T13:22:46;3.53;;;1.30;;
65583;SDS011;62116;43.582;1.470;2023-04-19T13:25:11;2.78;;;1.30;;
65583;SDS011;62116;43.582;1.470;2023-04-19T13:27:37;3.03;;;1.10;;
65583;SDS011;62116;43.582;1.470;2023-04-19T13:30:03;1.85;;;1.20;;
65583;SDS011;62116;43.582;1.470;2023-04-19T13:32:28;2.00;;;1.20;;
65583;SDS011;62116;43.582;1.470;2023-04-19T13:34:54;2.15;;;1.10;;
65583;SDS011;62116;43.582;1.470;2023-04-19T13:37:19;2.38;;;1.15;;
65583;SDS011;62116;43.582;1.470;2023-04-19T13:39:45;2.35;;;1.20;;
65583;SDS011;62116;43.582;1.470;2023-04-19T13:42:11;4.05;;;1.20;;
65583;SDS011;62116;43.582;1.470;2023-04-19T13:44:36;2.53;;;1.15;;
65583;SDS011;62116;43.582;1.470;2023-04-19T13:47:02;3.33;;;1.30;;
65583;SDS011;62116;43.582;1.470;2023-04-19T13:49:30;2.83;;;1.35;;
65583;SDS011;62116;43.582;1.470;2023-04-19T13:51:56;3.72;;;1.20;;
65583;SDS011;62116;43.582;1.470;2023-04-19T13:54:21;3.28;;;1.30;;
65583;SDS011;62116;43.582;1.470;2023-04-19T13:56:47;2.28;;;1.30;;
65583;SDS011;62116;43.582;1.470;2023-04-19T13:59:13;3.30;;;1.20;;
65583;SDS011;62116;43.582;1.470;2023-04-19T14:01:39;2.53;;;1.25;;
65583;SDS011;62116;43.582;1.470;2023-04-19T14:04:05;2.17;;;1.27;;
65583;SDS011;62116;43.582;1.470;2023-04-19T14:06:31;3.22;;;1.17;;
65583;SDS011;62116;43.582;1.470;2023-04-19T14:08:57;3.53;;;1.23;;
65583;SDS011;62116;43.582;1.470;2023-04-19T14:11:23;3.08;;;1.27;;
65583;SDS011;62116;43.582;1.470;2023-04-19T14:13:49;2.63;;;1.20;;
65583;SDS011;62116;43.582;1.470;2023-04-19T14:16:15;3.47;;;1.20;;
65583;SDS011;62116;43.582;1.470;2023-04-19T14:18:40;4.28;;;1.40;;
65583;SDS011;62116;43.582;1.470;2023-04-19T14:21:06;3.35;;;1.50;;
65583;SDS011;62116;43.582;1.470;2023-04-19T14:23:32;6.22;;;2.10;;
65583;SDS011;62116;43.582;1.470;2023-04-19T14:25:57;4.07;;;1.50;;
65583;SDS011;62116;43.582;1.470;2023-04-19T14:28:23;2.53;;;1.27;;
65583;SDS011;62116;43.582;1.470;2023-04-19T14:30:49;3.30;;;1.33;;
65583;SDS011;62116;43.582;1.470;2023-04-19T14:33:14;2.90;;;1.30;;
65583;SDS011;62116;43.582;1.470;2023-04-19T14:35:40;1.88;;;1.02;;
65583;SDS011;62116;43.582;1.470;2023-04-19T14:38:06;4.60;;;1.40;;
65583;SDS011;62116;43.582;1.470;2023-04-19T14:40:31;2.95;;;1.20;;
65583;SDS011;62116;43.582;1.470;2023-04-19T14:42:57;2.10;;;1.30;;
65583;SDS011;62116;43.582;1.470;2023-04-19T14:45:22;3.92;;;1.30;;
65583;SDS011;62116;43.582;1.470;2023-04-19T14:47:48;2.50;;;1.23;;
65583;SDS011;62116;43.582;1.470;2023-04-19T14:50:13;3.05;;;1.23;;
65583;SDS011;62116;43.582;1.470;2023-04-19T14:52:39;2.45;;;1.30;;
65583;SDS011;62116;43.582;1.470;2023-04-19T14:55:05;4.32;;;1.20;;
65583;SDS011;62116;43.582;1.470;2023-04-19T14:57:31;2.88;;;1.25;;
65583;SDS011;62116;43.582;1.470;2023-04-19T14:59:57;2.97;;;1.38;;
65583;SDS011;62116;43.582;1.470;2023-04-19T15:02:23;2.85;;;1.20;;
65583;SDS011;62116;43.582;1.470;2023-04-19T15:04:48;2.47;;;1.10;;
65583;SDS011;62116;43.582;1.470;2023-04-19T15:07:14;2.50;;;1.30;;
65583;SDS011;62116;43.582;1.470;2023-04-19T15:09:39;4.25;;;1.10;;
65583;SDS011;62116;43.582;1.470;2023-04-19T15:12:05;3.97;;;1.30;;
65583;SDS011;62116;43.582;1.470;2023-04-19T15:14:30;2.65;;;1.35;;